createdAt,value
2019-02-14T00:00:21.127Z,10.80
2019-02-14T00:01:53.393Z,10.43
2019-02-14T00:03:25.656Z,10.68
2019-02-14T00:04:57.917Z,10.70
2019-02-14T00:06:30.222Z,10.82
2019-02-14T00:08:02.440Z,11.30
2019-02-14T00:09:34.714Z,11.10
2019-02-14T00:11:07.020Z,10.75
2019-02-14T00:12:39.256Z,10.98
2019-02-14T00:14:11.518Z,11.38
2019-02-14T00:15:43.741Z,10.78
2019-02-14T00:17:16.036Z,10.18
2019-02-14T00:18:48.384Z,10.18
2019-02-14T00:20:20.690Z,10.82
2019-02-14T00:21:52.792Z,11.15
2019-02-14T00:23:24.931Z,10.28
2019-02-14T00:24:57.178Z,11.10
2019-02-14T00:26:29.422Z,10.50
2019-02-14T00:28:01.669Z,10.63
2019-02-14T00:29:33.868Z,10.98
2019-02-14T00:31:06.061Z,11.08
2019-02-14T00:32:38.331Z,10.00
2019-02-14T00:34:10.529Z,10.85
2019-02-14T00:35:42.658Z,11.00
2019-02-14T00:37:14.894Z,11.10
2019-02-14T00:38:47.175Z,12.05
2019-02-14T00:40:19.389Z,11.70
2019-02-14T00:41:51.544Z,11.70
2019-02-14T00:43:23.843Z,11.93
2019-02-14T00:44:56.135Z,11.90
2019-02-14T00:46:28.309Z,11.28
2019-02-14T00:48:00.593Z,11.43
2019-02-14T00:49:32.711Z,11.03
2019-02-14T00:51:05.017Z,11.08
2019-02-14T00:52:37.338Z,11.30
2019-02-14T00:54:09.581Z,11.20
2019-02-14T00:55:41.761Z,11.55
2019-02-14T00:57:14.050Z,11.10
2019-02-14T00:58:46.149Z,11.35
2019-02-14T01:00:18.364Z,11.48
2019-02-14T01:01:50.602Z,11.78
2019-02-14T01:03:22.848Z,11.53
2019-02-14T01:04:55.048Z,12.30
2019-02-14T01:06:27.259Z,11.55
2019-02-14T01:07:59.493Z,11.38
2019-02-14T01:09:31.723Z,11.78
2019-02-14T01:11:03.970Z,10.98
2019-02-14T01:12:36.224Z,12.18
2019-02-14T01:14:08.472Z,12.18
2019-02-14T01:15:40.956Z,11.10
2019-02-14T01:17:13.191Z,11.70
2019-02-14T01:18:45.481Z,12.03
2019-02-14T01:20:17.738Z,11.25
2019-02-14T01:21:50.044Z,12.07
2019-02-14T01:23:22.175Z,12.65
2019-02-14T01:24:54.342Z,11.95
2019-02-14T01:26:26.472Z,12.05
2019-02-14T01:27:58.724Z,11.57
2019-02-14T01:29:31.196Z,12.33
2019-02-14T01:31:03.445Z,12.20
2019-02-14T01:32:35.705Z,12.20
2019-02-14T01:34:07.821Z,12.23
2019-02-14T01:35:41.920Z,13.03
2019-02-14T01:37:14.244Z,12.03
2019-02-14T01:38:46.628Z,12.68
2019-02-14T01:40:18.873Z,12.35
2019-02-14T01:41:51.164Z,12.18
2019-02-14T01:43:23.424Z,12.37
2019-02-14T01:44:55.578Z,11.80
2019-02-14T01:46:27.871Z,11.93
2019-02-14T01:48:00.135Z,12.78
2019-02-14T01:49:32.399Z,12.50
2019-02-14T01:51:04.648Z,11.40
2019-02-14T01:52:36.921Z,11.57
2019-02-14T01:54:09.196Z,11.83
2019-02-14T01:55:41.477Z,11.68
2019-02-14T01:57:13.634Z,11.48
2019-02-14T01:58:45.992Z,11.83
2019-02-14T02:00:18.341Z,11.55
2019-02-14T02:01:50.575Z,12.07
2019-02-14T02:03:22.739Z,11.63
2019-02-14T02:04:54.912Z,12.28
2019-02-14T02:06:27.043Z,11.83
2019-02-14T02:07:59.324Z,12.03
2019-02-14T02:09:31.524Z,12.10
2019-02-14T02:11:05.232Z,10.90
2019-02-14T02:12:37.524Z,11.73
2019-02-14T02:14:09.752Z,11.53
2019-02-14T02:15:42.018Z,11.50
2019-02-14T02:17:14.260Z,12.18
2019-02-14T02:18:46.478Z,12.23
2019-02-14T02:20:18.696Z,12.07
2019-02-14T02:21:50.933Z,12.10
2019-02-14T02:23:23.204Z,12.10
2019-02-14T02:24:55.448Z,11.33
2019-02-14T02:26:27.664Z,11.73
2019-02-14T02:27:59.899Z,11.93
2019-02-14T02:29:32.147Z,10.98
2019-02-14T02:31:04.292Z,12.47
2019-02-14T02:32:36.611Z,12.20
2019-02-14T02:34:08.889Z,11.60
2019-02-14T02:35:41.069Z,11.85
2019-02-14T02:37:13.308Z,12.47
2019-02-14T02:38:45.452Z,11.88
2019-02-14T02:40:17.717Z,12.47
2019-02-14T02:41:49.982Z,12.03
2019-02-14T02:43:22.236Z,11.95
2019-02-14T02:44:54.446Z,12.63
2019-02-14T02:46:26.566Z,12.70
2019-02-14T02:47:58.653Z,11.25
2019-02-14T02:49:30.889Z,11.22
2019-02-14T02:51:03.125Z,11.88
2019-02-14T02:52:35.257Z,12.10
2019-02-14T02:54:07.547Z,11.12
2019-02-14T02:55:39.865Z,12.30
2019-02-14T02:57:12.008Z,11.40
2019-02-14T02:58:44.273Z,11.53
2019-02-14T03:00:16.524Z,11.60
2019-02-14T03:01:48.820Z,12.07
2019-02-14T03:03:21.071Z,11.70
2019-02-14T03:04:53.355Z,11.20
2019-02-14T03:06:25.623Z,11.12
2019-02-14T03:07:57.921Z,11.38
2019-02-14T03:09:30.010Z,11.73
2019-02-14T03:11:02.281Z,12.33
2019-02-14T03:12:34.377Z,11.18
2019-02-14T03:14:06.674Z,11.70
2019-02-14T03:15:38.937Z,11.68
2019-02-14T03:17:11.198Z,11.70
2019-02-14T03:18:43.461Z,11.95
2019-02-14T03:20:15.646Z,11.90
2019-02-14T03:21:47.984Z,11.18
2019-02-14T03:23:20.276Z,11.57
2019-02-14T03:24:52.476Z,11.73
2019-02-14T03:26:24.738Z,11.08
2019-02-14T03:27:56.984Z,12.30
2019-02-14T03:29:29.202Z,12.05
2019-02-14T03:31:01.473Z,12.88
2019-02-14T03:32:35.220Z,10.88
2019-02-14T03:34:07.597Z,11.97
2019-02-14T03:35:39.819Z,12.13
2019-02-14T03:37:12.075Z,12.30
2019-02-14T03:38:44.217Z,11.80
2019-02-14T03:40:16.455Z,11.75
2019-02-14T03:41:48.722Z,11.97
2019-02-14T03:43:20.870Z,12.07
2019-02-14T03:44:53.255Z,12.23
2019-02-14T03:46:25.391Z,13.08
2019-02-14T03:47:57.517Z,11.95
2019-02-14T03:49:29.771Z,12.85
2019-02-14T03:51:01.917Z,11.68
2019-02-14T03:52:34.158Z,11.57
2019-02-14T03:54:06.430Z,12.68
2019-02-14T03:55:38.638Z,12.55
2019-02-14T03:57:10.912Z,12.50
2019-02-14T03:58:43.195Z,11.80
2019-02-14T04:00:15.373Z,12.05
2019-02-14T04:01:47.662Z,12.82
2019-02-14T04:03:19.926Z,13.03
2019-02-14T04:04:52.190Z,11.78
2019-02-14T04:06:27.470Z,12.43
2019-02-14T04:07:58.588Z,12.60
2019-02-14T04:09:30.704Z,11.80
2019-02-14T04:11:03.024Z,12.25
2019-02-14T04:12:35.268Z,12.30
2019-02-14T04:14:07.532Z,12.80
2019-02-14T04:15:39.895Z,12.70
2019-02-14T04:17:12.012Z,13.00
2019-02-14T04:18:44.368Z,12.40
2019-02-14T04:20:16.665Z,12.37
2019-02-14T04:21:48.928Z,12.50
2019-02-14T04:23:21.217Z,12.00
2019-02-14T04:24:53.447Z,12.55
2019-02-14T04:26:25.596Z,12.58
2019-02-14T04:27:57.816Z,12.25
2019-02-14T04:29:30.054Z,12.90
2019-02-14T04:31:02.317Z,13.20
2019-02-14T04:32:34.469Z,13.03
2019-02-14T04:34:06.593Z,12.33
2019-02-14T04:35:38.693Z,13.48
2019-02-14T04:37:10.832Z,13.25
2019-02-14T04:38:43.110Z,12.47
2019-02-14T04:40:15.371Z,12.90
2019-02-14T04:41:47.543Z,13.20
2019-02-14T04:43:19.715Z,12.88
2019-02-14T04:44:51.819Z,12.53
2019-02-14T04:46:24.106Z,13.38
2019-02-14T04:47:56.389Z,12.33
2019-02-14T04:49:28.654Z,12.60
2019-02-14T04:51:00.797Z,12.53
2019-02-14T04:52:32.952Z,13.05
2019-02-14T04:54:05.134Z,12.60
2019-02-14T04:55:39.066Z,13.53
2019-02-14T04:57:11.368Z,12.53
2019-02-14T04:58:43.536Z,13.03
2019-02-14T05:00:15.649Z,12.43
2019-02-14T05:01:47.852Z,13.25
2019-02-14T05:03:20.124Z,12.65
2019-02-14T05:04:52.415Z,12.37
2019-02-14T05:06:24.678Z,12.85
2019-02-14T05:07:56.804Z,13.10
2019-02-14T05:09:29.072Z,13.78
2019-02-14T05:11:01.362Z,12.90
2019-02-14T05:12:33.594Z,13.88
2019-02-14T05:14:05.783Z,13.48
2019-02-14T05:15:38.050Z,13.58
2019-02-14T05:17:10.276Z,13.35
2019-02-14T05:18:42.537Z,14.35
2019-02-14T05:20:14.768Z,13.95
2019-02-14T05:21:46.877Z,14.10
2019-02-14T05:23:19.029Z,13.53
2019-02-14T05:24:51.189Z,12.95
2019-02-14T05:26:23.463Z,13.38
2019-02-14T05:27:58.232Z,13.28
2019-02-14T05:29:30.521Z,12.70
2019-02-14T05:31:02.749Z,12.95
2019-02-14T05:32:34.856Z,12.78
2019-02-14T05:34:07.106Z,13.75
2019-02-14T05:35:39.334Z,13.48
2019-02-14T05:37:11.606Z,13.75
2019-02-14T05:38:43.776Z,13.40
2019-02-14T05:40:16.076Z,14.10
2019-02-14T05:41:48.334Z,13.70
2019-02-14T05:43:20.623Z,13.80
2019-02-14T05:44:52.756Z,13.43
2019-02-14T05:46:25.042Z,13.20
2019-02-14T05:47:57.228Z,14.15
2019-02-14T05:49:29.523Z,13.10
2019-02-14T05:51:01.659Z,13.05
2019-02-14T05:52:33.950Z,13.53
2019-02-14T05:54:06.164Z,13.90
2019-02-14T05:55:38.429Z,13.72
2019-02-14T05:57:10.719Z,14.50
2019-02-14T05:58:42.857Z,14.78
2019-02-14T06:00:15.634Z,14.40
2019-02-14T06:01:47.785Z,14.05
2019-02-14T06:03:20.065Z,13.55
2019-02-14T06:04:52.216Z,14.70
2019-02-14T06:06:24.464Z,13.40
2019-02-14T06:07:56.723Z,13.72
2019-02-14T06:09:29.045Z,13.83
2019-02-14T06:11:01.320Z,13.85
2019-02-14T06:12:33.574Z,12.85
2019-02-14T06:14:05.693Z,12.98
2019-02-14T06:15:37.867Z,12.90
2019-02-14T06:17:10.198Z,13.62
2019-02-14T06:18:42.314Z,12.82
2019-02-14T06:20:14.603Z,13.20
2019-02-14T06:21:46.853Z,12.95
2019-02-14T06:23:19.059Z,13.32
2019-02-14T06:24:51.285Z,13.62
2019-02-14T06:26:23.442Z,13.58
2019-02-14T06:27:55.687Z,12.30
2019-02-14T06:29:27.951Z,13.35
2019-02-14T06:31:00.203Z,13.78
2019-02-14T06:32:32.491Z,15.65
2019-02-14T06:34:04.761Z,15.03
2019-02-14T06:35:36.905Z,13.95
2019-02-14T06:37:09.893Z,14.18
2019-02-14T06:38:42.491Z,14.33
2019-02-14T06:40:14.832Z,14.43
2019-02-14T06:41:47.122Z,13.93
2019-02-14T06:43:19.385Z,13.40
2019-02-14T06:44:51.557Z,13.48
2019-02-14T06:46:23.816Z,13.18
2019-02-14T06:47:56.036Z,12.37
2019-02-14T06:49:28.196Z,13.78
2019-02-14T06:51:00.461Z,15.95
2019-02-14T06:52:32.624Z,14.10
2019-02-14T06:54:04.767Z,11.30
2019-02-14T06:55:36.912Z,11.12
2019-02-14T06:57:09.063Z,10.40
2019-02-14T06:58:41.208Z,9.75
2019-02-14T07:00:14.082Z,9.90
2019-02-14T07:01:46.288Z,9.55
2019-02-14T07:03:18.578Z,10.03
2019-02-14T07:04:50.823Z,9.90
2019-02-14T07:06:23.096Z,8.93
2019-02-14T07:07:55.288Z,9.98
2019-02-14T07:09:27.468Z,9.43
2019-02-14T07:10:59.593Z,9.33
2019-02-14T07:12:31.730Z,10.20
2019-02-14T07:14:03.959Z,10.90
2019-02-14T07:15:36.230Z,10.60
2019-02-14T07:17:08.492Z,10.30
2019-02-14T07:18:40.579Z,11.70
2019-02-14T07:20:13.311Z,11.45
2019-02-14T07:21:45.562Z,11.63
2019-02-14T07:23:17.796Z,11.43
2019-02-14T07:24:49.896Z,12.30
2019-02-14T07:26:21.976Z,12.40
2019-02-14T07:27:54.047Z,13.28
2019-02-14T07:29:26.256Z,11.83
2019-02-14T07:30:58.496Z,11.33
2019-02-14T07:32:30.625Z,12.47
2019-02-14T07:34:04.045Z,11.43
2019-02-14T07:35:37.232Z,12.20
2019-02-14T07:37:09.504Z,12.60
2019-02-14T07:38:41.596Z,13.15
2019-02-14T07:40:13.878Z,12.28
2019-02-14T07:41:46.131Z,12.73
2019-02-14T07:43:18.394Z,12.35
2019-02-14T07:44:50.535Z,12.63
2019-02-14T07:46:23.111Z,12.45
2019-02-14T07:47:55.465Z,13.05
2019-02-14T07:49:27.719Z,12.45
2019-02-14T07:50:59.932Z,13.35
2019-02-14T07:52:32.224Z,13.60
2019-02-14T07:54:04.483Z,12.85
2019-02-14T07:55:36.744Z,13.15
2019-02-14T07:57:08.992Z,13.38
2019-02-14T07:58:41.268Z,13.72
2019-02-14T08:00:13.561Z,13.20
2019-02-14T08:01:45.817Z,13.00
2019-02-14T08:03:17.938Z,13.18
2019-02-14T08:04:50.036Z,13.03
2019-02-14T08:06:22.266Z,12.95
2019-02-14T08:07:54.515Z,14.50
2019-02-14T08:09:26.655Z,14.90
2019-02-14T08:10:58.788Z,13.72
2019-02-14T08:12:31.068Z,13.53
2019-02-14T08:14:03.319Z,13.40
2019-02-14T08:15:35.463Z,13.88
2019-02-14T08:17:07.550Z,13.98
2019-02-14T08:18:39.787Z,14.90
2019-02-14T08:20:12.478Z,15.38
2019-02-14T08:21:44.604Z,16.52
2019-02-14T08:23:16.718Z,18.85
2019-02-14T08:24:49.081Z,19.00
2019-02-14T08:26:21.378Z,17.42
2019-02-14T08:27:53.606Z,17.27
2019-02-14T08:29:25.730Z,16.52
2019-02-14T08:30:58.020Z,16.30
2019-02-14T08:32:30.291Z,17.02
2019-02-14T08:34:02.535Z,16.40
2019-02-14T08:35:34.771Z,17.05
2019-02-14T08:37:06.995Z,15.48
2019-02-14T08:38:39.275Z,15.32
2019-02-14T08:40:14.638Z,16.55
2019-02-14T08:41:46.917Z,15.20
2019-02-14T08:43:19.160Z,14.63
2019-02-14T08:44:51.376Z,15.23
2019-02-14T08:46:23.644Z,13.98
2019-02-14T08:47:55.859Z,14.58
2019-02-14T08:49:28.018Z,14.30
2019-02-14T08:51:00.139Z,14.95
2019-02-14T08:52:32.295Z,15.03
2019-02-14T08:54:04.518Z,14.53
2019-02-14T08:55:36.776Z,15.15
2019-02-14T08:57:09.033Z,15.28
2019-02-14T08:58:41.303Z,15.50
2019-02-14T09:00:13.507Z,15.30
2019-02-14T09:01:45.644Z,16.67
2019-02-14T09:03:17.910Z,17.48
2019-02-14T09:04:49.989Z,16.57
2019-02-14T09:06:22.105Z,16.93
2019-02-14T09:07:55.144Z,18.02
2019-02-14T09:09:27.458Z,17.85
2019-02-14T09:10:59.676Z,17.35
2019-02-14T09:12:31.933Z,17.60
2019-02-14T09:14:04.031Z,18.62
2019-02-14T09:15:36.299Z,18.35
2019-02-14T09:17:08.532Z,18.35
2019-02-14T09:18:40.699Z,18.27
2019-02-14T09:20:13.222Z,18.45
2019-02-14T09:21:45.462Z,17.57
2019-02-14T09:23:17.687Z,18.40
2019-02-14T09:24:49.818Z,18.17
2019-02-14T09:26:22.033Z,17.98
2019-02-14T09:27:54.282Z,18.17
2019-02-14T09:29:26.468Z,19.05
2019-02-14T09:30:58.572Z,19.30
2019-02-14T09:32:30.803Z,18.23
2019-02-14T09:34:02.885Z,19.90
2019-02-14T09:35:35.115Z,18.32
2019-02-14T09:37:07.376Z,19.95
2019-02-14T09:38:39.628Z,19.10
2019-02-14T09:40:11.887Z,19.82
2019-02-14T09:41:44.121Z,19.10
2019-02-14T09:43:16.395Z,19.40
2019-02-14T09:44:48.579Z,18.73
2019-02-14T09:46:20.711Z,18.12
2019-02-14T09:47:54.081Z,18.37
2019-02-14T09:49:26.406Z,19.40
2019-02-14T09:50:58.524Z,18.48
2019-02-14T09:52:30.815Z,19.87
2019-02-14T09:54:03.096Z,19.15
2019-02-14T09:55:35.336Z,18.80
2019-02-14T09:57:07.649Z,19.02
2019-02-14T09:58:39.883Z,19.17
2019-02-14T10:00:13.717Z,17.12
2019-02-14T10:01:45.980Z,17.95
2019-02-14T10:03:18.184Z,16.55
2019-02-14T10:04:50.453Z,17.62
2019-02-14T10:06:22.537Z,18.00
2019-02-14T10:07:54.784Z,18.23
2019-02-14T10:09:27.185Z,17.60
2019-02-14T10:10:59.397Z,18.65
2019-02-14T10:12:31.690Z,16.85
2019-02-14T10:14:03.914Z,16.75
2019-02-14T10:15:36.116Z,17.50
2019-02-14T10:17:08.279Z,17.48
2019-02-14T10:18:40.426Z,17.25
2019-02-14T10:20:13.758Z,17.27
2019-02-14T10:21:46.038Z,17.65
2019-02-14T10:23:18.210Z,16.62
2019-02-14T10:24:52.469Z,17.15
2019-02-14T10:26:24.355Z,17.35
2019-02-14T10:27:56.586Z,16.97
2019-02-14T10:29:28.694Z,16.95
2019-02-14T10:31:00.916Z,16.37
2019-02-14T10:32:33.049Z,16.25
2019-02-14T10:34:05.296Z,15.95
2019-02-14T10:35:37.541Z,16.62
2019-02-14T10:37:09.790Z,16.75
2019-02-14T10:38:42.001Z,15.30
2019-02-14T10:40:14.212Z,16.37
2019-02-14T10:41:46.367Z,14.55
2019-02-14T10:43:18.628Z,17.35
2019-02-14T10:44:50.777Z,16.35
2019-02-14T10:46:22.896Z,15.50
2019-02-14T10:47:54.963Z,15.32
2019-02-14T10:49:27.223Z,16.17
2019-02-14T10:50:59.351Z,15.15
2019-02-14T10:52:31.621Z,15.48
2019-02-14T10:54:03.860Z,15.85
2019-02-14T10:55:36.089Z,15.43
2019-02-14T10:57:08.327Z,14.75
2019-02-14T10:58:40.514Z,16.12
2019-02-14T11:00:16.514Z,15.72
2019-02-14T11:01:48.773Z,15.30
2019-02-14T11:03:21.093Z,15.58
2019-02-14T11:04:53.341Z,15.70
2019-02-14T11:06:25.589Z,15.45
2019-02-14T11:07:57.902Z,14.70
2019-02-14T11:09:30.144Z,15.75
2019-02-14T11:11:02.362Z,15.32
2019-02-14T11:12:34.440Z,15.68
2019-02-14T11:14:06.665Z,15.98
2019-02-14T11:15:38.871Z,15.48
2019-02-14T11:17:11.125Z,15.95
2019-02-14T11:18:44.579Z,16.12
2019-02-14T11:20:17.961Z,16.25
2019-02-14T11:21:50.448Z,15.90
2019-02-14T11:23:22.781Z,15.80
2019-02-14T11:24:54.976Z,16.15
2019-02-14T11:26:27.182Z,15.90
2019-02-14T11:27:59.350Z,16.73
2019-02-14T11:29:31.668Z,16.02
2019-02-14T11:31:03.745Z,16.17
2019-02-14T11:32:35.873Z,15.80
2019-02-14T11:34:07.951Z,16.37
2019-02-14T11:35:40.241Z,16.67
2019-02-14T11:37:12.521Z,16.77
2019-02-14T11:38:44.796Z,17.02
2019-02-14T11:40:17.036Z,16.45
2019-02-14T11:41:49.209Z,16.57
2019-02-14T11:43:21.457Z,16.32
2019-02-14T11:44:53.641Z,16.20
2019-02-14T11:46:25.786Z,16.35
2019-02-14T11:47:58.049Z,16.35
2019-02-14T11:49:30.349Z,16.60
2019-02-14T11:51:02.613Z,16.90
2019-02-14T11:52:34.702Z,16.37
2019-02-14T11:54:06.974Z,16.77
2019-02-14T11:55:39.275Z,15.90
2019-02-14T11:57:11.387Z,17.17
2019-02-14T11:58:43.681Z,17.12
2019-02-14T12:00:19.691Z,16.15
2019-02-14T12:01:55.326Z,16.35
2019-02-14T12:03:25.903Z,17.30
2019-02-14T12:04:58.148Z,16.87
2019-02-14T12:06:30.422Z,17.02
2019-02-14T12:08:02.600Z,16.42
2019-02-14T12:09:34.876Z,16.37
2019-02-14T12:11:07.200Z,16.73
2019-02-14T12:12:39.492Z,17.00
2019-02-14T12:14:11.784Z,16.48
2019-02-14T12:15:44.060Z,16.87
2019-02-14T12:17:16.276Z,17.25
2019-02-14T12:18:48.595Z,17.23
2019-02-14T12:20:20.733Z,16.73
2019-02-14T12:21:52.964Z,16.67
2019-02-14T12:23:25.135Z,17.87
2019-02-14T12:24:57.428Z,16.85
2019-02-14T12:26:29.539Z,17.17
2019-02-14T12:28:01.698Z,16.62
2019-02-14T12:29:33.927Z,16.85
2019-02-14T12:31:06.195Z,17.25
2019-02-14T12:32:38.296Z,16.20
2019-02-14T12:34:10.564Z,17.27
2019-02-14T12:35:42.794Z,17.80
2019-02-14T12:37:16.120Z,16.35
2019-02-14T12:38:48.483Z,16.75
2019-02-14T12:40:20.620Z,17.20
2019-02-14T12:41:52.968Z,16.40
2019-02-14T12:43:25.229Z,16.57
2019-02-14T12:44:57.348Z,16.23
2019-02-14T12:46:29.596Z,16.07
2019-02-14T12:48:01.917Z,16.70
2019-02-14T12:49:34.098Z,16.00
2019-02-14T12:51:06.219Z,15.83
2019-02-14T12:52:38.575Z,15.63
2019-02-14T12:54:10.784Z,16.20
2019-02-14T12:55:43.008Z,15.40
2019-02-14T12:57:15.279Z,15.00
2019-02-14T12:58:47.528Z,15.43
2019-02-14T13:00:20.247Z,14.75
2019-02-14T13:01:52.488Z,14.70
2019-02-14T13:03:24.685Z,14.87
2019-02-14T13:04:56.953Z,14.38
2019-02-14T13:06:29.279Z,15.43
2019-02-14T13:08:01.493Z,14.83
2019-02-14T13:09:33.580Z,15.23
2019-02-14T13:11:05.849Z,14.68
2019-02-14T13:12:38.149Z,14.65
2019-02-14T13:14:10.394Z,15.05
2019-02-14T13:15:42.630Z,13.85
2019-02-14T13:17:14.939Z,14.78
2019-02-14T13:18:47.198Z,14.45
2019-02-14T13:20:19.473Z,14.87
2019-02-14T13:21:51.764Z,14.78
2019-02-14T13:23:24.050Z,14.98
2019-02-14T13:24:56.308Z,15.10
2019-02-14T13:26:28.415Z,14.60
2019-02-14T13:28:00.643Z,14.85
2019-02-14T13:29:32.748Z,15.10
2019-02-14T13:31:05.009Z,13.88
2019-02-14T13:32:37.286Z,13.98
2019-02-14T13:34:09.401Z,14.25
2019-02-14T13:35:41.704Z,13.80
2019-02-14T13:37:13.850Z,14.40
2019-02-14T13:38:45.975Z,13.62
2019-02-14T13:40:18.301Z,14.00
2019-02-14T13:41:50.581Z,13.78
2019-02-14T13:43:22.778Z,13.70
2019-02-14T13:44:55.049Z,13.28
2019-02-14T13:46:27.187Z,13.25
2019-02-14T13:47:59.456Z,13.20
2019-02-14T13:49:32.761Z,13.65
2019-02-14T13:51:05.081Z,13.10
2019-02-14T13:52:37.288Z,13.95
2019-02-14T13:54:09.386Z,13.00
2019-02-14T13:55:41.647Z,13.65
2019-02-14T13:57:13.892Z,12.95
2019-02-14T13:58:46.046Z,13.22
2019-02-14T14:00:20.477Z,13.30
2019-02-14T14:01:52.782Z,13.45
2019-02-14T14:03:25.117Z,13.70
2019-02-14T14:04:57.232Z,15.08
2019-02-14T14:06:29.663Z,14.75
2019-02-14T14:08:01.815Z,14.43
2019-02-14T14:09:38.764Z,13.35
2019-02-14T14:11:08.391Z,13.50
2019-02-14T14:12:42.255Z,14.47
2019-02-14T14:14:14.794Z,14.53
2019-02-14T14:15:47.049Z,14.63
2019-02-14T14:17:19.293Z,15.05
2019-02-14T14:18:51.451Z,13.75
2019-02-14T14:20:23.695Z,13.35
2019-02-14T14:21:55.923Z,13.40
2019-02-14T14:23:28.157Z,13.40
2019-02-14T14:25:00.357Z,13.32
2019-02-14T14:26:32.472Z,13.75
2019-02-14T14:28:04.745Z,13.40
2019-02-14T14:29:36.855Z,13.75
2019-02-14T14:31:09.157Z,13.38
2019-02-14T14:32:41.419Z,13.83
2019-02-14T14:34:13.566Z,12.80
2019-02-14T14:35:45.804Z,13.93
2019-02-14T14:37:17.904Z,15.13
2019-02-14T14:38:50.009Z,13.58
2019-02-14T14:40:22.249Z,13.60
2019-02-14T14:41:54.479Z,13.45
2019-02-14T14:43:49.018Z,14.60
2019-02-14T14:45:49.699Z,14.98
2019-02-14T14:47:23.565Z,14.20
2019-02-14T14:48:55.856Z,14.43
2019-02-14T14:50:28.107Z,14.45
2019-02-14T14:52:00.324Z,14.05
2019-02-14T14:53:32.527Z,14.35
2019-02-14T14:55:04.772Z,15.28
2019-02-14T14:56:37.093Z,18.98
2019-02-14T14:58:09.399Z,19.35
2019-02-14T14:59:41.737Z,17.60
2019-02-14T15:01:13.963Z,19.62
2019-02-14T15:02:46.253Z,18.57
2019-02-14T15:04:18.484Z,17.70
2019-02-14T15:05:50.633Z,17.73
2019-02-14T15:07:22.844Z,16.40
2019-02-14T15:08:54.945Z,16.62
2019-02-14T15:10:27.117Z,15.80
2019-02-14T15:11:59.275Z,17.05
2019-02-14T15:13:31.408Z,16.27
2019-02-14T15:15:03.595Z,17.10
2019-02-14T15:16:35.724Z,17.55
2019-02-14T15:18:07.979Z,18.77
2019-02-14T15:19:40.305Z,17.82
2019-02-14T15:21:12.516Z,17.95
2019-02-14T15:22:44.783Z,19.30
2019-02-14T15:24:17.024Z,19.82
2019-02-14T15:25:49.195Z,19.48
2019-02-14T15:27:21.344Z,17.10
2019-02-14T15:28:53.577Z,18.70
2019-02-14T15:30:25.874Z,17.52
2019-02-14T15:31:58.119Z,16.82
2019-02-14T15:33:30.437Z,17.82
2019-02-14T15:35:02.786Z,18.27
2019-02-14T15:36:34.989Z,18.95
2019-02-14T15:38:09.558Z,18.07
2019-02-14T15:39:41.334Z,18.52
2019-02-14T15:41:13.480Z,17.57
2019-02-14T15:42:45.642Z,17.27
2019-02-14T15:44:17.989Z,17.10
2019-02-14T15:45:50.269Z,17.12
2019-02-14T15:47:22.534Z,18.70
2019-02-14T15:48:54.820Z,17.45
2019-02-14T15:50:27.899Z,18.10
2019-02-14T15:52:03.205Z,17.55
2019-02-14T15:53:35.339Z,17.92
2019-02-14T15:55:07.588Z,16.80
2019-02-14T15:56:39.848Z,18.77
2019-02-14T15:58:12.072Z,18.17
2019-02-14T15:59:45.452Z,17.75
2019-02-14T16:01:19.035Z,17.40
2019-02-14T16:02:52.547Z,18.00
2019-02-14T16:04:26.679Z,17.90
2019-02-14T16:05:58.913Z,18.23
2019-02-14T16:07:31.208Z,17.67
2019-02-14T16:09:04.649Z,18.00
2019-02-14T16:10:36.937Z,18.75
2019-02-14T16:12:09.205Z,18.62
2019-02-14T16:13:41.466Z,18.48
2019-02-14T16:15:13.581Z,18.35
2019-02-14T16:16:47.254Z,17.70
2019-02-14T16:18:21.161Z,17.87
2019-02-14T16:19:55.511Z,18.35
2019-02-14T16:21:29.545Z,18.35
2019-02-14T16:23:04.128Z,17.90
2019-02-14T16:24:40.299Z,17.57
2019-02-14T16:26:12.953Z,18.12
2019-02-14T16:27:46.421Z,17.12
2019-02-14T16:29:19.659Z,17.62
2019-02-14T16:30:52.839Z,17.92
2019-02-14T16:32:25.922Z,16.93
2019-02-14T16:33:58.230Z,18.32
2019-02-14T16:35:30.491Z,16.80
2019-02-14T16:37:03.128Z,17.50
2019-02-14T16:38:37.157Z,17.80
2019-02-14T16:40:09.420Z,17.42
2019-02-14T16:41:41.652Z,18.32
2019-02-14T16:43:13.904Z,17.62
2019-02-14T16:44:46.262Z,17.50
2019-02-14T16:46:18.574Z,16.87
2019-02-14T16:47:50.856Z,17.65
2019-02-14T16:49:23.088Z,18.07
2019-02-14T16:50:55.333Z,17.67
2019-02-14T16:52:27.652Z,17.50
2019-02-14T16:53:59.904Z,18.00
2019-02-14T16:55:32.100Z,17.42
2019-02-14T16:57:04.402Z,18.15
2019-02-14T16:58:36.638Z,17.15
2019-02-14T17:00:10.231Z,17.30
2019-02-14T17:01:42.517Z,17.27
2019-02-14T17:03:14.758Z,17.55
2019-02-14T17:04:46.877Z,18.20
2019-02-14T17:06:19.170Z,18.42
2019-02-14T17:07:51.420Z,18.35
2019-02-14T17:09:23.861Z,17.17
2019-02-14T17:10:56.084Z,18.15
2019-02-14T17:12:28.406Z,17.62
2019-02-14T17:14:00.660Z,18.15
2019-02-14T17:15:32.895Z,17.35
2019-02-14T17:17:05.320Z,16.90
2019-02-14T17:18:37.542Z,17.73
2019-02-14T17:20:09.699Z,16.67
2019-02-14T17:21:42.108Z,17.25
2019-02-14T17:23:14.310Z,16.95
2019-02-14T17:24:46.558Z,16.90
2019-02-14T17:26:18.798Z,16.27
2019-02-14T17:27:51.113Z,17.07
2019-02-14T17:29:23.234Z,16.73
2019-02-14T17:30:55.509Z,15.85
2019-02-14T17:32:27.889Z,14.25
2019-02-14T17:34:00.160Z,15.18
2019-02-14T17:35:32.378Z,13.38
2019-02-14T17:37:04.632Z,12.65
2019-02-14T17:38:36.861Z,11.22
2019-02-14T17:40:09.271Z,10.58
2019-02-14T17:41:41.430Z,9.33
2019-02-14T17:43:13.711Z,10.20
2019-02-14T17:44:45.817Z,8.88
2019-02-14T17:46:18.056Z,9.00
2019-02-14T17:47:50.237Z,8.48
2019-02-14T17:49:22.534Z,8.48
2019-02-14T17:50:54.796Z,9.20
2019-02-14T17:52:27.114Z,9.28
2019-02-14T17:53:59.321Z,10.45
2019-02-14T17:55:31.439Z,14.83
2019-02-14T17:57:03.721Z,14.55
2019-02-14T17:58:36.033Z,14.73
2019-02-14T18:00:09.337Z,13.10
2019-02-14T18:01:41.468Z,12.70
2019-02-14T18:03:13.726Z,12.60
2019-02-14T18:04:45.995Z,11.83
2019-02-14T18:06:18.238Z,11.00
2019-02-14T18:07:50.510Z,9.60
2019-02-14T18:09:22.783Z,20.10
2019-02-14T18:10:55.329Z,12.23
2019-02-14T18:12:27.678Z,12.07
2019-02-14T18:13:59.864Z,15.78
2019-02-14T18:15:32.216Z,13.13
2019-02-14T18:17:04.438Z,12.95
2019-02-14T18:18:36.552Z,12.73
2019-02-14T18:20:09.285Z,12.33
2019-02-14T18:21:41.523Z,11.93
2019-02-14T18:23:13.811Z,11.53
2019-02-14T18:24:45.976Z,11.12
2019-02-14T18:26:18.322Z,10.85
2019-02-14T18:27:50.657Z,9.60
2019-02-14T18:29:22.934Z,9.55
2019-02-14T18:30:55.170Z,9.48
2019-02-14T18:32:27.441Z,9.35
2019-02-14T18:33:59.689Z,9.28
2019-02-14T18:35:31.945Z,9.60
2019-02-14T18:37:04.072Z,9.23
2019-02-14T18:38:36.430Z,9.30
2019-02-14T18:40:08.770Z,9.10
2019-02-14T18:41:41.151Z,9.15
2019-02-14T18:43:13.307Z,8.58
2019-02-14T18:44:47.311Z,9.65
2019-02-14T18:46:19.732Z,9.43
2019-02-14T18:47:51.888Z,9.63
2019-02-14T18:49:24.220Z,10.10
2019-02-14T18:50:56.322Z,9.95
2019-02-14T18:52:28.413Z,10.88
2019-02-14T18:54:00.480Z,10.58
2019-02-14T18:55:32.728Z,10.93
2019-02-14T18:57:04.826Z,11.08
2019-02-14T18:58:37.065Z,11.10
2019-02-14T19:00:11.111Z,10.93
2019-02-14T19:01:43.389Z,11.70
2019-02-14T19:03:15.603Z,11.78
2019-02-14T19:04:47.915Z,12.35
2019-02-14T19:06:20.039Z,13.25
2019-02-14T19:07:52.343Z,14.87
2019-02-14T19:09:24.626Z,13.98
2019-02-14T19:10:56.892Z,17.82
2019-02-14T19:12:29.074Z,18.40
2019-02-14T19:14:01.161Z,15.20
2019-02-14T19:15:33.373Z,14.20
2019-02-14T19:17:05.664Z,14.15
2019-02-14T19:18:38.063Z,15.15
2019-02-14T19:20:10.493Z,17.05
2019-02-14T19:21:42.638Z,20.25
2019-02-14T19:23:23.443Z,19.15
2019-02-14T19:24:49.041Z,20.57
2019-02-14T19:26:21.199Z,19.05
2019-02-14T19:27:53.344Z,17.52
2019-02-14T19:29:25.582Z,16.07
2019-02-14T19:30:57.841Z,15.63
2019-02-14T19:32:30.074Z,15.32
2019-02-14T19:34:02.314Z,15.55
2019-02-14T19:35:34.608Z,14.83
2019-02-14T19:37:06.721Z,14.83
2019-02-14T19:38:38.944Z,15.18
2019-02-14T19:40:11.221Z,15.72
2019-02-14T19:41:43.352Z,15.10
2019-02-14T19:43:15.500Z,15.38
2019-02-14T19:44:47.754Z,15.93
2019-02-14T19:46:20.011Z,16.75
2019-02-14T19:47:52.276Z,15.83
2019-02-14T19:49:24.524Z,16.80
2019-02-14T19:50:56.641Z,17.02